createdAt,value
2023-03-11T00:00:39.564Z,98683.13
2023-03-11T00:03:08.954Z,98701.34
2023-03-11T00:05:41.665Z,98706.53
2023-03-11T00:08:11.379Z,98732.53
2023-03-11T00:10:40.523Z,98729.06
2023-03-11T00:13:08.774Z,98735.03
2023-03-11T00:15:36.640Z,98739.41
2023-03-11T00:18:04.074Z,98748.03
2023-03-11T00:20:33.918Z,98753.25
2023-03-11T00:23:01.212Z,98767.13
2023-03-11T00:25:30.582Z,98792.25
2023-03-11T00:27:57.701Z,98780.16
2023-03-11T00:30:25.600Z,98793.19
2023-03-11T00:32:54.919Z,98805.38
2023-03-11T00:35:24.691Z,98797.50
2023-03-11T00:37:54.891Z,98802.75
2023-03-11T00:40:22.640Z,98813.19
2023-03-11T00:42:49.236Z,98814.00
2023-03-11T00:45:15.889Z,98824.38
2023-03-11T00:47:42.582Z,98837.41
2023-03-11T00:50:12.189Z,98843.47
2023-03-11T00:52:38.914Z,98843.47
2023-03-11T00:55:06.945Z,98838.25
2023-03-11T00:57:34.659Z,98873.84
2023-03-11T01:00:01.978Z,98866.91
2023-03-11T01:02:28.993Z,98868.63
2023-03-11T01:04:55.808Z,98875.59
2023-03-11T01:07:22.829Z,98885.13
2023-03-11T01:09:49.396Z,98887.75
2023-03-11T01:12:15.969Z,98882.56
2023-03-11T01:14:42.462Z,98898.22
2023-03-11T01:17:09.246Z,98904.28
2023-03-11T01:19:35.772Z,98906.03
2023-03-11T01:22:02.263Z,98908.66
2023-03-11T01:24:28.728Z,98926.94
2023-03-11T01:26:55.325Z,98939.06
2023-03-11T01:29:23.826Z,98955.47
2023-03-11T01:31:50.382Z,98963.25
2023-03-11T01:34:16.970Z,98952.03
2023-03-11T01:36:43.542Z,98955.47
2023-03-11T01:39:10.271Z,98963.34
2023-03-11T01:41:36.951Z,98978.97
2023-03-11T01:44:04.925Z,98972.84
2023-03-11T01:46:52.626Z,98984.94
2023-03-11T01:49:23.149Z,98987.59
2023-03-11T01:51:53.724Z,99000.63
2023-03-11T01:54:35.377Z,99005.84
2023-03-11T01:57:06.583Z,99012.81
2023-03-11T01:59:38.021Z,99018.97
2023-03-11T02:02:11.925Z,99026.81
2023-03-11T02:04:41.032Z,99022.50
2023-03-11T02:07:09.329Z,99039.91
2023-03-11T02:09:36.498Z,99052.97
2023-03-11T02:12:04.944Z,99050.38
2023-03-11T02:14:31.938Z,99052.13
2023-03-11T02:16:59.690Z,99052.16
2023-03-11T02:19:54.505Z,99055.63
2023-03-11T02:22:21.757Z,99059.09
2023-03-11T02:25:22.806Z,99064.25
2023-03-11T02:27:52.592Z,99068.66
2023-03-11T02:30:23.671Z,99076.50
2023-03-11T02:32:50.660Z,99084.31
2023-03-11T02:35:18.061Z,99078.22
2023-03-11T02:37:50.383Z,99093.88
2023-03-11T02:40:22.990Z,99099.16
2023-03-11T02:42:55.873Z,99100.00
2023-03-11T02:45:25.218Z,99105.16
2023-03-11T02:47:56.373Z,99106.94
2023-03-11T02:50:25.408Z,99111.31
2023-03-11T02:52:52.039Z,99107.00
2023-03-11T02:55:20.287Z,99119.97
2023-03-11T02:57:48.096Z,99106.84
2023-03-11T03:00:17.261Z,99125.06
2023-03-11T03:02:52.380Z,99126.84
2023-03-11T03:05:21.933Z,99132.06
2023-03-11T03:07:50.880Z,99135.50
2023-03-11T03:10:19.748Z,99141.59
2023-03-11T03:12:46.683Z,99145.88
2023-03-11T03:15:13.491Z,99139.81
2023-03-11T03:17:40.084Z,99151.97
2023-03-11T03:20:11.347Z,99152.88
2023-03-11T03:22:41.785Z,99161.59
2023-03-11T03:25:10.669Z,99158.91
2023-03-11T03:27:38.059Z,99177.09
2023-03-11T03:30:07.530Z,99174.50
2023-03-11T03:32:34.694Z,99176.25
2023-03-11T03:35:02.242Z,99184.06
2023-03-11T03:37:45.869Z,99181.47
2023-03-11T03:40:13.539Z,99183.09
2023-03-11T03:42:40.338Z,99196.09
2023-03-11T03:45:08.310Z,99200.38
2023-03-11T03:47:36.510Z,99202.97
2023-03-11T03:50:04.667Z,99209.03
2023-03-11T03:52:32.142Z,99212.50
2023-03-11T03:54:58.673Z,99212.53
2023-03-11T03:57:25.319Z,99224.66
2023-03-11T03:59:52.780Z,99227.34
2023-03-11T04:02:19.321Z,99227.34
2023-03-11T04:04:46.761Z,99242.09
2023-03-11T04:07:13.456Z,99239.56
2023-03-11T04:09:42.105Z,99243.09
2023-03-11T04:12:17.424Z,99256.97
2023-03-11T04:14:44.594Z,99247.38
2023-03-11T04:17:12.755Z,99250.03
2023-03-11T04:19:39.764Z,99255.16
2023-03-11T04:22:06.847Z,99260.31
2023-03-11T04:24:33.654Z,99253.34
2023-03-11T04:27:00.285Z,99255.03
2023-03-11T04:29:26.876Z,99262.88
2023-03-11T04:31:54.010Z,99261.97
2023-03-11T04:34:21.243Z,99270.56
2023-03-11T04:36:47.810Z,99280.97
2023-03-11T04:39:16.396Z,99282.69
2023-03-11T04:41:44.402Z,99280.00
2023-03-11T04:44:15.692Z,99273.13
2023-03-11T04:46:42.393Z,99282.69
2023-03-11T04:49:10.362Z,99288.72
2023-03-11T04:51:37.371Z,99293.94
2023-03-11T04:54:04.468Z,99305.28
2023-03-11T04:56:31.055Z,99317.47
2023-03-11T04:58:58.049Z,99304.47
2023-03-11T05:01:25.550Z,99311.47
2023-03-11T05:03:52.161Z,99307.16
2023-03-11T05:06:18.631Z,99328.91
2023-03-11T05:08:45.197Z,99328.91
2023-03-11T05:11:11.759Z,99325.41
2023-03-11T05:13:38.316Z,99333.22
2023-03-11T05:16:05.283Z,99340.13
2023-03-11T05:18:32.497Z,99341.91
2023-03-11T05:20:59.382Z,99354.88
2023-03-11T05:23:28.928Z,99353.22
2023-03-11T05:25:55.468Z,99348.84
2023-03-11T05:28:21.978Z,99353.22
2023-03-11T05:30:51.622Z,99360.19
2023-03-11T05:33:18.676Z,99367.84
2023-03-11T05:35:46.041Z,99373.78
2023-03-11T05:38:13.050Z,99377.25
2023-03-11T05:40:39.716Z,99379.81
2023-03-11T05:43:06.244Z,99383.25
2023-03-11T05:45:37.116Z,99382.41
2023-03-11T05:48:03.787Z,99394.50
2023-03-11T05:50:31.229Z,99398.88
2023-03-11T05:52:57.708Z,99394.56
2023-03-11T05:55:24.197Z,99390.34
2023-03-11T05:57:52.265Z,99392.19
2023-03-11T06:00:20.515Z,99401.78
2023-03-11T06:02:50.331Z,99409.66
2023-03-11T06:05:18.809Z,99410.66
2023-03-11T06:07:47.516Z,99406.34
2023-03-11T06:10:14.037Z,99416.84
2023-03-11T06:12:41.067Z,99422.03
2023-03-11T06:15:13.475Z,99426.53
2023-03-11T06:17:40.872Z,99437.03
2023-03-11T06:20:09.823Z,99434.41
2023-03-11T06:22:39.038Z,99450.16
2023-03-11T06:25:08.012Z,99450.16
2023-03-11T06:27:34.917Z,99456.34
2023-03-11T06:30:01.908Z,99457.22
2023-03-11T06:32:31.610Z,99461.56
2023-03-11T06:34:58.187Z,99459.88
2023-03-11T06:37:25.588Z,99479.91
2023-03-11T06:39:53.555Z,99480.72
2023-03-11T06:42:26.840Z,99487.63
2023-03-11T06:44:56.977Z,99485.94
2023-03-11T06:47:23.858Z,99502.38
2023-03-11T06:49:51.416Z,99498.03
2023-03-11T06:52:18.552Z,99510.31
2023-03-11T06:54:45.406Z,99523.38
2023-03-11T06:57:12.657Z,99530.31
2023-03-11T06:59:40.141Z,99530.28
2023-03-11T07:02:13.333Z,99530.31
2023-03-11T07:04:40.774Z,99535.53
2023-03-11T07:07:07.419Z,99547.75
2023-03-11T07:09:34.077Z,99544.28
2023-03-11T07:12:01.653Z,99543.38
2023-03-11T07:14:33.233Z,99558.25
2023-03-11T07:16:59.863Z,99561.66
2023-03-11T07:19:32.100Z,99566.06
2023-03-11T07:21:58.583Z,99565.34
2023-03-11T07:24:25.055Z,99572.47
2023-03-11T07:26:51.511Z,99580.28
2023-03-11T07:29:18.490Z,99582.09
2023-03-11T07:31:45.242Z,99575.25
2023-03-11T07:34:12.848Z,99589.16
2023-03-11T07:36:41.303Z,99597.16
2023-03-11T07:39:08.255Z,99597.19
2023-03-11T07:41:35.832Z,99606.03
2023-03-11T07:44:03.831Z,99615.69
2023-03-11T07:46:31.314Z,99619.28
2023-03-11T07:48:57.852Z,99621.91
2023-03-11T07:51:30.457Z,99621.09
2023-03-11T07:53:58.400Z,99628.09
2023-03-11T07:56:27.199Z,99633.41
2023-03-11T07:58:53.765Z,99639.59
2023-03-11T08:01:22.976Z,99643.22
2023-03-11T08:03:51.379Z,99647.63
2023-03-11T08:06:20.618Z,99655.44
2023-03-11T08:08:48.512Z,99658.13
2023-03-11T08:11:16.452Z,99655.56
2023-03-11T08:13:44.279Z,99659.97
2023-03-11T08:16:13.926Z,99666.16
2023-03-11T08:18:40.539Z,99675.84
2023-03-11T08:21:08.938Z,99669.63
2023-03-11T08:23:35.950Z,99678.31
2023-03-11T08:26:10.944Z,99680.13
2023-03-11T08:28:37.953Z,99684.75
2023-03-11T08:31:19.705Z,99691.84
2023-03-11T08:33:52.257Z,99689.16
2023-03-11T08:36:20.356Z,99696.84
2023-03-11T08:38:46.907Z,99695.16
2023-03-11T08:41:13.846Z,99709.13
2023-03-11T08:43:42.257Z,99719.34
2023-03-11T08:46:09.153Z,99714.94
2023-03-11T08:48:37.263Z,99722.97
2023-03-11T08:51:10.668Z,99726.53
2023-03-11T08:53:37.745Z,99731.94
2023-03-11T08:56:04.889Z,99732.00
2023-03-11T08:58:31.745Z,99729.66
2023-03-11T09:00:58.431Z,99735.91
2023-03-11T09:03:25.180Z,99736.72
2023-03-11T09:05:59.652Z,99744.84
2023-03-11T09:08:27.049Z,99753.59
2023-03-11T09:10:53.514Z,99762.97
2023-03-11T09:13:20.460Z,99759.00
2023-03-11T09:15:49.024Z,99776.16
2023-03-11T09:18:16.715Z,99771.63
2023-03-11T09:20:44.204Z,99770.66
2023-03-11T09:23:13.991Z,99781.06
2023-03-11T09:25:40.473Z,99780.06
2023-03-11T09:28:07.470Z,99782.63
2023-03-11T09:30:34.125Z,99782.88
2023-03-11T09:33:00.681Z,99795.22
2023-03-11T09:35:27.560Z,99797.00
2023-03-11T09:37:54.108Z,99795.72
2023-03-11T09:40:23.213Z,99797.13
2023-03-11T09:43:15.904Z,99801.28
2023-03-11T09:45:55.344Z,99804.88
2023-03-11T09:48:35.617Z,99806.84
2023-03-11T09:51:25.795Z,99808.59
2023-03-11T09:54:02.961Z,99814.09
2023-03-11T09:56:31.192Z,99806.84
2023-03-11T09:59:31.083Z,99818.66
2023-03-11T10:01:59.042Z,99822.63
2023-03-11T10:04:44.737Z,99825.25
2023-03-11T10:07:21.577Z,99829.75
2023-03-11T10:09:54.331Z,99833.13
2023-03-11T10:12:41.205Z,99836.28
2023-03-11T10:15:33.738Z,99832.25
2023-03-11T10:18:27.266Z,99840.47
2023-03-11T10:21:00.928Z,99841.41
2023-03-11T10:23:27.457Z,99838.75
2023-03-11T10:26:16.076Z,99848.91
2023-03-11T10:28:59.194Z,99840.78
2023-03-11T10:31:45.231Z,99853.63
2023-03-11T10:34:26.096Z,99854.53
2023-03-11T10:37:10.243Z,99851.78
2023-03-11T10:39:37.998Z,99842.84
2023-03-11T10:42:14.126Z,99858.47
2023-03-11T10:44:42.505Z,99855.13
2023-03-11T10:47:20.595Z,99869.78
2023-03-11T10:49:47.139Z,99867.88
2023-03-11T10:52:14.188Z,99873.09
2023-03-11T10:54:47.802Z,99868.03
2023-03-11T10:57:38.208Z,99880.44
2023-03-11T11:00:17.476Z,99873.88
2023-03-11T11:02:58.301Z,99885.22
2023-03-11T11:05:33.926Z,99886.47
2023-03-11T11:08:11.230Z,99892.13
2023-03-11T11:10:37.772Z,99890.25
2023-03-11T11:13:13.542Z,99886.97
2023-03-11T11:15:42.661Z,99889.88
2023-03-11T11:18:21.300Z,99881.34
2023-03-11T11:21:13.495Z,99896.38
2023-03-11T11:24:01.817Z,99885.81
2023-03-11T11:26:28.443Z,99889.06
2023-03-11T11:29:14.740Z,99887.38
2023-03-11T11:31:44.740Z,99892.72
2023-03-11T11:34:32.570Z,99890.97
2023-03-11T11:37:02.317Z,99888.22
2023-03-11T11:39:35.478Z,99892.59
2023-03-11T11:42:03.159Z,99897.47
2023-03-11T11:44:33.844Z,99893.47
2023-03-11T11:47:21.638Z,99892.91
2023-03-11T11:50:01.203Z,99892.50
2023-03-11T11:52:32.831Z,99890.16
2023-03-11T11:55:03.022Z,99889.78
2023-03-11T11:57:29.822Z,99892.78
2023-03-11T11:59:57.551Z,99892.19
2023-03-11T12:02:53.869Z,99885.97
2023-03-11T12:05:32.704Z,99891.09
2023-03-11T12:08:25.347Z,99894.31
2023-03-11T12:11:01.300Z,99904.59
2023-03-11T12:13:49.675Z,99897.06
2023-03-11T12:16:31.446Z,99900.16
2023-03-11T12:19:17.093Z,99885.00
2023-03-11T12:21:57.291Z,99894.28
2023-03-11T12:24:32.876Z,99883.63
2023-03-11T12:27:07.050Z,99882.72
2023-03-11T12:29:44.645Z,99888.75
2023-03-11T12:32:41.268Z,99892.88
2023-03-11T12:35:30.211Z,99890.28
2023-03-11T12:38:02.679Z,99886.03
2023-03-11T12:40:49.489Z,99887.25
2023-03-11T12:43:33.563Z,99893.94
2023-03-11T12:46:04.472Z,99884.56
2023-03-11T12:48:52.490Z,99886.69
2023-03-11T12:51:39.202Z,99888.88
2023-03-11T12:54:31.699Z,99896.34
2023-03-11T12:57:09.458Z,99889.78
2023-03-11T13:00:12.576Z,99887.69
2023-03-11T13:02:51.608Z,99891.78
2023-03-11T13:05:30.134Z,99892.50
2023-03-11T13:08:02.613Z,99895.75
2023-03-11T13:10:40.449Z,99892.06
2023-03-11T13:13:22.939Z,99888.47
2023-03-11T13:15:50.251Z,99905.88
2023-03-11T13:18:24.761Z,99908.09
2023-03-11T13:20:59.350Z,99905.41
2023-03-11T13:23:33.832Z,99910.50
2023-03-11T13:26:12.510Z,99908.84
2023-03-11T13:29:12.980Z,99917.72
2023-03-11T13:32:01.088Z,99926.34
2023-03-11T13:34:46.181Z,99920.84
2023-03-11T13:37:38.523Z,99924.28
2023-03-11T13:40:30.120Z,99928.78
2023-03-11T13:43:04.158Z,99928.94
2023-03-11T13:45:36.489Z,99935.00
2023-03-11T13:48:16.747Z,99926.09
2023-03-11T13:50:49.272Z,99935.63
2023-03-11T13:53:22.725Z,99940.00
2023-03-11T13:55:49.870Z,99928.53
2023-03-11T13:58:20.344Z,99932.16
2023-03-11T14:00:49.997Z,99937.03
2023-03-11T14:03:23.002Z,99939.53
2023-03-11T14:06:10.918Z,99949.25
2023-03-11T14:08:38.522Z,99939.13
2023-03-11T14:11:08.121Z,99944.22
2023-03-11T14:13:40.906Z,99945.13
2023-03-11T14:16:13.812Z,99954.09
2023-03-11T14:19:18.984Z,99950.69
2023-03-11T14:21:47.625Z,99949.78
2023-03-11T14:24:20.092Z,99950.59
2023-03-11T14:26:48.680Z,99956.47
2023-03-11T14:29:20.787Z,99951.81
2023-03-11T14:31:48.179Z,99955.06
2023-03-11T14:34:17.724Z,99947.03
2023-03-11T14:36:45.692Z,99951.25
2023-03-11T14:39:34.353Z,99956.41
2023-03-11T14:42:18.966Z,99956.31
2023-03-11T14:44:52.362Z,99968.56
2023-03-11T14:47:39.933Z,99961.53
2023-03-11T14:50:13.395Z,99965.09
2023-03-11T14:52:56.646Z,99962.44
2023-03-11T14:55:29.243Z,99973.69
2023-03-11T14:58:01.605Z,99968.47
2023-03-11T15:00:33.986Z,99971.09
2023-03-11T15:03:22.661Z,99969.28
2023-03-11T15:05:56.512Z,99974.44
2023-03-11T15:08:27.594Z,99968.88
2023-03-11T15:11:06.795Z,99960.88
2023-03-11T15:13:34.129Z,99966.88
2023-03-11T15:16:02.670Z,99967.63
2023-03-11T15:18:32.681Z,99965.72
2023-03-11T15:21:25.569Z,99964.72
2023-03-11T15:24:02.523Z,99963.69
2023-03-11T15:26:32.324Z,99963.69
2023-03-11T15:29:12.703Z,99967.06
2023-03-11T15:31:45.058Z,99979.22
2023-03-11T15:34:32.882Z,99973.00
2023-03-11T15:37:21.328Z,99973.91
2023-03-11T15:39:51.141Z,99959.91
2023-03-11T15:42:24.348Z,99971.28
2023-03-11T15:45:19.718Z,99972.19
2023-03-11T15:47:48.514Z,99977.47
2023-03-11T15:50:24.023Z,99973.94
2023-03-11T15:52:53.418Z,99970.53
2023-03-11T15:55:20.090Z,99981.88
2023-03-11T15:57:51.045Z,99976.66
2023-03-11T16:00:23.696Z,99972.31
2023-03-11T16:02:50.767Z,99974.94
2023-03-11T16:05:21.900Z,99980.16
2023-03-11T16:07:48.960Z,99979.34
2023-03-11T16:10:21.154Z,99982.78
2023-03-11T16:12:48.099Z,99981.88
2023-03-11T16:15:30.119Z,99991.38
2023-03-11T16:17:59.127Z,99987.00
2023-03-11T16:20:28.791Z,99979.88
2023-03-11T16:23:02.366Z,99992.91
2023-03-11T16:25:36.095Z,99989.31
2023-03-11T16:28:03.632Z,99991.00
2023-03-11T16:30:32.282Z,99989.25
2023-03-11T16:32:59.356Z,99994.47
2023-03-11T16:35:26.518Z,100002.34
2023-03-11T16:37:53.149Z,99999.88
2023-03-11T16:40:22.490Z,99994.84
2023-03-11T16:42:48.990Z,100002.38
2023-03-11T16:45:17.556Z,100008.16
2023-03-11T16:47:44.163Z,100006.13
2023-03-11T16:50:11.496Z,100013.69
2023-03-11T16:52:38.327Z,100012.56
2023-03-11T16:55:05.722Z,100007.06
2023-03-11T16:57:32.228Z,100013.81
2023-03-11T16:59:58.866Z,100019.69
2023-03-11T17:02:25.506Z,100021.16
2023-03-11T17:04:52.106Z,100025.28
2023-03-11T17:07:19.212Z,100032.88
2023-03-11T17:09:45.684Z,100030.00
2023-03-11T17:12:15.740Z,100028.94
2023-03-11T17:14:42.403Z,100028.72
2023-03-11T17:17:09.054Z,100038.09
2023-03-11T17:19:35.615Z,100037.88
2023-03-11T17:22:02.283Z,100041.94
2023-03-11T17:24:32.309Z,100031.28
2023-03-11T17:26:58.899Z,100038.00
2023-03-11T17:29:25.688Z,100039.53
2023-03-11T17:31:52.265Z,100034.94
2023-03-11T17:34:18.892Z,100037.38
2023-03-11T17:36:45.398Z,100037.19
2023-03-11T17:39:11.993Z,100036.97
2023-03-11T17:41:41.063Z,100035.88
2023-03-11T17:44:07.545Z,100035.69
2023-03-11T17:46:36.274Z,100033.88
2023-03-11T17:49:03.284Z,100038.97
2023-03-11T17:51:29.778Z,100045.94
2023-03-11T17:53:56.739Z,100036.19
2023-03-11T17:56:23.722Z,100039.53
2023-03-11T17:58:51.018Z,100035.91
2023-03-11T18:01:20.628Z,100044.50
2023-03-11T18:03:47.248Z,100044.41
2023-03-11T18:06:15.792Z,100052.19
2023-03-11T18:08:42.201Z,100048.56
2023-03-11T18:11:11.684Z,100058.81
2023-03-11T18:13:39.476Z,100057.81
2023-03-11T18:16:15.604Z,100058.59
2023-03-11T18:18:42.887Z,100071.50
2023-03-11T18:21:13.063Z,100061.81
2023-03-11T18:23:40.065Z,100070.41
2023-03-11T18:26:08.505Z,100068.53
2023-03-11T18:28:35.918Z,100070.22
2023-03-11T18:31:07.200Z,100071.75
2023-03-11T18:33:34.032Z,100079.41
2023-03-11T18:36:11.260Z,100076.75
2023-03-11T18:38:37.828Z,100081.81
2023-03-11T18:41:04.523Z,100079.91
2023-03-11T18:43:31.007Z,100089.47
2023-03-11T18:45:57.651Z,100087.63
2023-03-11T18:48:24.244Z,100093.69
2023-03-11T18:50:52.616Z,100091.88
2023-03-11T18:53:21.335Z,100093.53
2023-03-11T18:55:48.543Z,100088.22
2023-03-11T18:58:15.174Z,100089.88
2023-03-11T19:00:41.756Z,100084.66
2023-03-11T19:03:10.971Z,100087.22
2023-03-11T19:05:37.577Z,100085.34
2023-03-11T19:08:04.610Z,100084.41
2023-03-11T19:10:31.246Z,100088.75
2023-03-11T19:12:57.712Z,100087.75
2023-03-11T19:15:24.252Z,100088.50
2023-03-11T19:18:04.333Z,100087.53
2023-03-11T19:20:32.620Z,100089.13
2023-03-11T19:22:59.296Z,100089.91
2023-03-11T19:25:27.538Z,100089.75
2023-03-11T19:27:55.460Z,100087.09
2023-03-11T19:30:22.058Z,100087.00
2023-03-11T19:32:52.605Z,100091.28
2023-03-11T19:35:21.135Z,100092.03
2023-03-11T19:37:48.424Z,100090.16
2023-03-11T19:40:16.833Z,100084.06
2023-03-11T19:42:43.793Z,100093.59
2023-03-11T19:45:10.949Z,100087.47
2023-03-11T19:47:38.345Z,100090.03
2023-03-11T19:50:05.417Z,100090.03
2023-03-11T19:52:32.063Z,100090.03
2023-03-11T19:54:58.620Z,100097.78
2023-03-11T19:57:25.127Z,100093.47
2023-03-11T19:59:51.576Z,100095.13
2023-03-11T20:02:18.230Z,100101.97
2023-03-11T20:04:44.854Z,100094.03
2023-03-11T20:07:11.527Z,100109.59
2023-03-11T20:09:38.026Z,100115.69
2023-03-11T20:12:04.849Z,100120.84
2023-03-11T20:14:31.518Z,100110.34
2023-03-11T20:16:58.153Z,100110.28
2023-03-11T20:19:24.728Z,100102.34
2023-03-11T20:21:51.537Z,100110.09
2023-03-11T20:24:18.100Z,100101.31
2023-03-11T20:26:45.120Z,100105.56
2023-03-11T20:29:11.828Z,100115.19
2023-03-11T20:31:38.610Z,100108.16
2023-03-11T20:34:05.388Z,100097.75
2023-03-11T20:36:33.438Z,100099.44
2023-03-11T20:39:00.211Z,100102.84
2023-03-11T20:41:27.545Z,100101.03
2023-03-11T20:43:57.164Z,100106.97
2023-03-11T20:46:24.103Z,100106.91
2023-03-11T20:48:50.702Z,100105.88
2023-03-11T20:51:20.401Z,100104.94
2023-03-11T20:53:47.840Z,100112.75
2023-03-11T20:56:18.612Z,100112.75
2023-03-11T20:58:46.009Z,100126.56
2023-03-11T21:01:25.619Z,100118.75
2023-03-11T21:03:57.266Z,100120.50
2023-03-11T21:06:27.151Z,100112.63
2023-03-11T21:08:55.493Z,100106.34
2023-03-11T21:11:23.290Z,100106.34
2023-03-11T21:13:50.833Z,100110.69
2023-03-11T21:16:17.664Z,100112.41
2023-03-11T21:18:47.767Z,100113.31
2023-03-11T21:21:17.252Z,100109.78
2023-03-11T21:23:44.464Z,100114.94
2023-03-11T21:26:13.183Z,100113.97
2023-03-11T21:28:40.124Z,100115.63
2023-03-11T21:31:11.126Z,100116.47
2023-03-11T21:33:39.805Z,100112.97
2023-03-11T21:36:07.577Z,100114.59
2023-03-11T21:38:34.428Z,100118.03
2023-03-11T21:41:16.462Z,100119.69
2023-03-11T21:43:43.653Z,100117.06
2023-03-11T21:46:13.058Z,100121.31
2023-03-11T21:48:39.865Z,100123.75
2023-03-11T21:51:06.940Z,100116.75
2023-03-11T21:53:34.454Z,100128.78
2023-03-11T21:56:01.394Z,100120.91
2023-03-11T21:58:28.036Z,100126.06
2023-03-11T22:00:54.747Z,100126.78
2023-03-11T22:03:22.162Z,100124.19
2023-03-11T22:05:48.840Z,100125.09
2023-03-11T22:08:15.369Z,100131.16
2023-03-11T22:10:42.037Z,100116.31
2023-03-11T22:13:08.817Z,100126.72
2023-03-11T22:15:35.372Z,100120.69
2023-03-11T22:18:02.190Z,100121.53
2023-03-11T22:20:29.202Z,100128.38
2023-03-11T22:22:56.165Z,100126.59
2023-03-11T22:25:22.696Z,100130.84
2023-03-11T22:27:49.104Z,100129.03
2023-03-11T22:30:16.156Z,100127.34
2023-03-11T22:32:44.512Z,100129.88
2023-03-11T22:35:10.980Z,100134.19
2023-03-11T22:37:37.493Z,100137.63
2023-03-11T22:40:07.881Z,100129.72
2023-03-11T22:42:34.862Z,100138.38
2023-03-11T22:45:02.398Z,100133.16
2023-03-11T22:47:29.171Z,100134.00
2023-03-11T22:49:56.195Z,100129.47
2023-03-11T22:52:22.700Z,100135.47
2023-03-11T22:54:49.174Z,100130.28
2023-03-11T22:57:15.976Z,100130.28
2023-03-11T22:59:42.553Z,100133.69
2023-03-11T23:02:09.413Z,100130.22
2023-03-11T23:04:36.385Z,100129.31
2023-03-11T23:07:03.263Z,100135.41
2023-03-11T23:09:29.929Z,100134.50
2023-03-11T23:11:56.631Z,100133.56
2023-03-11T23:14:28.035Z,100134.38
2023-03-11T23:17:00.523Z,100129.13
2023-03-11T23:19:27.927Z,100132.44
2023-03-11T23:21:54.755Z,100130.69
2023-03-11T23:24:21.403Z,100135.81
2023-03-11T23:26:47.876Z,100147.84
2023-03-11T23:29:14.862Z,100139.81
2023-03-11T23:31:41.297Z,100138.97
2023-03-11T23:34:08.130Z,100141.47
2023-03-11T23:36:34.688Z,100149.19
2023-03-11T23:39:01.363Z,100148.16
2023-03-11T23:41:29.121Z,100142.91
2023-03-11T23:43:55.806Z,100145.44
2023-03-11T23:46:22.777Z,100150.50
2023-03-11T23:48:49.294Z,100147.06
2023-03-11T23:51:16.484Z,100160.91
2023-03-11T23:53:43.006Z,100160.72
2023-03-11T23:56:15.039Z,100148.56
2023-03-11T23:58:41.506Z,100164.03
